Terminal Aerodrome Forecast
Issued by NWS

Home | Current Version | Previous Version | Text Only | Print | Product List | Glossary On
Versions: 1 2 3 4 5 6 7 8 9 10 11 12 13 14 15 16 17 18 19 20 21 22
000
FTUS43 KGRR 231700
TAFBTL
TAF
KBTL 231722Z 2318/2418 19007KT P6SM BKN250
     FM240000 17004KT P6SM OVC150
     FM241200 15003KT 3SM BR OVC025
     FM241600 20002KT P6SM OVC026=

USA.gov is the U.S. government's official web portal to all federal, state and local government web resources and services.